sensor_id;sensor_type;location;lat;lon;timestamp;P1;durP1;ratioP1;P2;durP2;ratioP2
40154;SDS011;25875;48.202;16.334;2023-04-08T00:01:01;18.98;;;17.10;;
40154;SDS011;25875;48.202;16.334;2023-04-08T00:03:27;20.67;;;18.58;;
40154;SDS011;25875;48.202;16.334;2023-04-08T00:05:54;19.90;;;17.90;;
40154;SDS011;25875;48.202;16.334;2023-04-08T00:08:22;19.80;;;17.75;;
40154;SDS011;25875;48.202;16.334;2023-04-08T00:10:49;17.52;;;15.70;;
40154;SDS011;25875;48.202;16.334;2023-04-08T00:13:16;14.52;;;13.07;;
40154;SDS011;25875;48.202;16.334;2023-04-08T00:15:42;14.10;;;12.70;;
40154;SDS011;25875;48.202;16.334;2023-04-08T00:18:09;11.60;;;10.30;;
40154;SDS011;25875;48.202;16.334;2023-04-08T00:20:36;11.07;;;9.98;;
40154;SDS011;25875;48.202;16.334;2023-04-08T00:23:03;11.43;;;10.23;;
40154;SDS011;25875;48.202;16.334;2023-04-08T00:25:31;12.82;;;11.52;;
40154;SDS011;25875;48.202;16.334;2023-04-08T00:27:57;12.27;;;11.05;;
40154;SDS011;25875;48.202;16.334;2023-04-08T00:30:24;11.50;;;10.18;;
40154;SDS011;25875;48.202;16.334;2023-04-08T00:32:51;11.05;;;9.95;;
40154;SDS011;25875;48.202;16.334;2023-04-08T00:35:18;11.90;;;9.27;;
40154;SDS011;25875;48.202;16.334;2023-04-08T00:37:45;9.60;;;8.68;;
40154;SDS011;25875;48.202;16.334;2023-04-08T00:40:12;9.70;;;8.70;;
40154;SDS011;25875;48.202;16.334;2023-04-08T00:42:40;10.02;;;8.88;;
40154;SDS011;25875;48.202;16.334;2023-04-08T00:45:07;8.07;;;7.25;;
40154;SDS011;25875;48.202;16.334;2023-04-08T00:47:35;8.63;;;6.88;;
40154;SDS011;25875;48.202;16.334;2023-04-08T00:50:02;8.57;;;7.60;;
40154;SDS011;25875;48.202;16.334;2023-04-08T00:52:29;7.50;;;6.63;;
40154;SDS011;25875;48.202;16.334;2023-04-08T00:54:55;7.93;;;6.72;;
40154;SDS011;25875;48.202;16.334;2023-04-08T00:57:22;7.10;;;6.15;;
40154;SDS011;25875;48.202;16.334;2023-04-08T00:59:50;6.68;;;6.03;;
40154;SDS011;25875;48.202;16.334;2023-04-08T01:02:17;7.60;;;6.80;;
40154;SDS011;25875;48.202;16.334;2023-04-08T01:07:21;6.53;;;5.80;;
40154;SDS011;25875;48.202;16.334;2023-04-08T01:09:53;7.53;;;6.80;;
40154;SDS011;25875;48.202;16.334;2023-04-08T01:12:23;6.57;;;5.82;;
40154;SDS011;25875;48.202;16.334;2023-04-08T01:14:56;6.60;;;5.15;;
40154;SDS011;25875;48.202;16.334;2023-04-08T01:17:26;7.77;;;5.93;;
40154;SDS011;25875;48.202;16.334;2023-04-08T01:19:55;6.90;;;5.10;;
40154;SDS011;25875;48.202;16.334;2023-04-08T01:22:26;5.90;;;5.30;;
40154;SDS011;25875;48.202;16.334;2023-04-08T01:25:04;6.53;;;5.45;;
40154;SDS011;25875;48.202;16.334;2023-04-08T01:27:35;5.30;;;4.77;;
40154;SDS011;25875;48.202;16.334;2023-04-08T01:30:03;5.22;;;4.72;;
40154;SDS011;25875;48.202;16.334;2023-04-08T01:32:33;5.47;;;4.70;;
40154;SDS011;25875;48.202;16.334;2023-04-08T01:35:01;5.47;;;4.93;;
40154;SDS011;25875;48.202;16.334;2023-04-08T01:37:29;6.15;;;5.55;;
40154;SDS011;25875;48.202;16.334;2023-04-08T01:39:58;6.20;;;5.38;;
40154;SDS011;25875;48.202;16.334;2023-04-08T01:42:27;7.07;;;5.35;;
40154;SDS011;25875;48.202;16.334;2023-04-08T01:44:56;5.32;;;4.82;;
40154;SDS011;25875;48.202;16.334;2023-04-08T01:47:24;5.80;;;5.20;;
40154;SDS011;25875;48.202;16.334;2023-04-08T01:49:53;5.93;;;5.00;;
40154;SDS011;25875;48.202;16.334;2023-04-08T01:52:21;6.35;;;5.40;;
40154;SDS011;25875;48.202;16.334;2023-04-08T01:54:48;5.13;;;4.63;;
40154;SDS011;25875;48.202;16.334;2023-04-08T01:57:18;4.95;;;4.50;;
40154;SDS011;25875;48.202;16.334;2023-04-08T01:59:49;5.18;;;4.20;;
40154;SDS011;25875;48.202;16.334;2023-04-08T02:02:20;4.40;;;3.65;;
40154;SDS011;25875;48.202;16.334;2023-04-08T02:04:50;4.43;;;4.03;;
40154;SDS011;25875;48.202;16.334;2023-04-08T02:07:16;4.03;;;3.63;;
40154;SDS011;25875;48.202;16.334;2023-04-08T02:09:43;6.88;;;4.53;;
40154;SDS011;25875;48.202;16.334;2023-04-08T02:12:10;5.35;;;4.07;;
40154;SDS011;25875;48.202;16.334;2023-04-08T02:14:37;4.82;;;4.00;;
40154;SDS011;25875;48.202;16.334;2023-04-08T02:17:05;5.25;;;4.32;;
40154;SDS011;25875;48.202;16.334;2023-04-08T02:19:38;3.80;;;3.40;;
40154;SDS011;25875;48.202;16.334;2023-04-08T02:22:10;5.15;;;4.45;;
40154;SDS011;25875;48.202;16.334;2023-04-08T02:24:53;4.22;;;3.40;;
40154;SDS011;25875;48.202;16.334;2023-04-08T02:27:21;4.65;;;3.33;;
40154;SDS011;25875;48.202;16.334;2023-04-08T02:29:50;4.25;;;3.40;;
40154;SDS011;25875;48.202;16.334;2023-04-08T02:32:20;4.10;;;3.25;;
40154;SDS011;25875;48.202;16.334;2023-04-08T02:34:50;3.45;;;2.53;;
40154;SDS011;25875;48.202;16.334;2023-04-08T02:37:18;4.18;;;3.30;;
40154;SDS011;25875;48.202;16.334;2023-04-08T02:39:45;4.25;;;3.70;;
40154;SDS011;25875;48.202;16.334;2023-04-08T02:42:11;4.72;;;4.32;;
40154;SDS011;25875;48.202;16.334;2023-04-08T02:44:38;4.70;;;3.80;;
40154;SDS011;25875;48.202;16.334;2023-04-08T02:47:05;4.57;;;3.55;;
40154;SDS011;25875;48.202;16.334;2023-04-08T02:49:31;4.55;;;3.60;;
40154;SDS011;25875;48.202;16.334;2023-04-08T02:51:59;5.05;;;3.35;;
40154;SDS011;25875;48.202;16.334;2023-04-08T02:54:26;5.00;;;3.60;;
40154;SDS011;25875;48.202;16.334;2023-04-08T02:56:53;3.85;;;3.17;;
40154;SDS011;25875;48.202;16.334;2023-04-08T02:59:19;4.25;;;3.40;;
40154;SDS011;25875;48.202;16.334;2023-04-08T03:01:46;5.22;;;3.30;;
40154;SDS011;25875;48.202;16.334;2023-04-08T03:04:13;3.60;;;3.05;;
40154;SDS011;25875;48.202;16.334;2023-04-08T03:06:40;4.45;;;3.25;;
40154;SDS011;25875;48.202;16.334;2023-04-08T03:09:08;3.67;;;3.10;;
40154;SDS011;25875;48.202;16.334;2023-04-08T03:11:34;4.38;;;3.50;;
40154;SDS011;25875;48.202;16.334;2023-04-08T03:14:01;3.75;;;3.30;;
40154;SDS011;25875;48.202;16.334;2023-04-08T03:16:27;3.70;;;2.83;;
40154;SDS011;25875;48.202;16.334;2023-04-08T03:18:54;4.00;;;3.10;;
40154;SDS011;25875;48.202;16.334;2023-04-08T03:21:21;3.67;;;2.95;;
40154;SDS011;25875;48.202;16.334;2023-04-08T03:23:48;3.30;;;2.58;;
40154;SDS011;25875;48.202;16.334;2023-04-08T03:26:16;3.58;;;2.65;;
40154;SDS011;25875;48.202;16.334;2023-04-08T03:28:43;3.85;;;3.08;;
40154;SDS011;25875;48.202;16.334;2023-04-08T03:31:09;3.45;;;2.97;;
40154;SDS011;25875;48.202;16.334;2023-04-08T03:33:36;3.30;;;2.65;;
40154;SDS011;25875;48.202;16.334;2023-04-08T03:36:03;2.90;;;2.15;;
40154;SDS011;25875;48.202;16.334;2023-04-08T03:38:30;3.30;;;2.67;;
40154;SDS011;25875;48.202;16.334;2023-04-08T03:40:57;3.45;;;2.60;;
40154;SDS011;25875;48.202;16.334;2023-04-08T03:43:25;3.22;;;2.70;;
40154;SDS011;25875;48.202;16.334;2023-04-08T03:45:51;3.33;;;2.78;;
40154;SDS011;25875;48.202;16.334;2023-04-08T03:48:18;3.17;;;2.40;;
40154;SDS011;25875;48.202;16.334;2023-04-08T03:50:44;3.58;;;2.70;;
40154;SDS011;25875;48.202;16.334;2023-04-08T03:53:11;2.92;;;2.20;;
40154;SDS011;25875;48.202;16.334;2023-04-08T03:55:38;3.42;;;2.60;;
40154;SDS011;25875;48.202;16.334;2023-04-08T03:58:04;3.65;;;2.50;;
40154;SDS011;25875;48.202;16.334;2023-04-08T04:00:32;3.33;;;2.55;;
40154;SDS011;25875;48.202;16.334;2023-04-08T04:03:00;2.88;;;2.30;;
40154;SDS011;25875;48.202;16.334;2023-04-08T04:05:27;3.72;;;2.55;;
40154;SDS011;25875;48.202;16.334;2023-04-08T04:07:54;3.35;;;2.88;;
40154;SDS011;25875;48.202;16.334;2023-04-08T04:10:22;2.97;;;2.63;;
40154;SDS011;25875;48.202;16.334;2023-04-08T04:12:49;2.90;;;2.40;;
40154;SDS011;25875;48.202;16.334;2023-04-08T04:15:16;3.60;;;2.58;;
40154;SDS011;25875;48.202;16.334;2023-04-08T04:17:45;3.10;;;2.33;;
40154;SDS011;25875;48.202;16.334;2023-04-08T04:20:13;3.40;;;2.60;;
40154;SDS011;25875;48.202;16.334;2023-04-08T04:22:40;3.15;;;2.67;;
40154;SDS011;25875;48.202;16.334;2023-04-08T04:25:07;2.83;;;2.10;;
40154;SDS011;25875;48.202;16.334;2023-04-08T04:27:34;2.70;;;2.30;;
40154;SDS011;25875;48.202;16.334;2023-04-08T04:30:02;2.80;;;2.38;;
40154;SDS011;25875;48.202;16.334;2023-04-08T04:32:28;3.20;;;2.65;;
40154;SDS011;25875;48.202;16.334;2023-04-08T04:34:57;3.13;;;2.50;;
40154;SDS011;25875;48.202;16.334;2023-04-08T04:37:23;4.07;;;3.67;;
40154;SDS011;25875;48.202;16.334;2023-04-08T04:39:50;3.95;;;3.28;;
40154;SDS011;25875;48.202;16.334;2023-04-08T04:42:17;4.10;;;3.28;;
40154;SDS011;25875;48.202;16.334;2023-04-08T04:44:43;4.20;;;3.58;;
40154;SDS011;25875;48.202;16.334;2023-04-08T04:47:10;5.10;;;4.32;;
40154;SDS011;25875;48.202;16.334;2023-04-08T04:49:37;4.57;;;3.95;;
40154;SDS011;25875;48.202;16.334;2023-04-08T04:52:05;4.55;;;4.15;;
40154;SDS011;25875;48.202;16.334;2023-04-08T04:54:32;4.72;;;3.90;;
40154;SDS011;25875;48.202;16.334;2023-04-08T04:56:58;4.57;;;4.05;;
40154;SDS011;25875;48.202;16.334;2023-04-08T04:59:25;5.00;;;4.50;;
40154;SDS011;25875;48.202;16.334;2023-04-08T05:01:52;4.90;;;4.00;;
40154;SDS011;25875;48.202;16.334;2023-04-08T05:04:21;4.55;;;4.15;;
40154;SDS011;25875;48.202;16.334;2023-04-08T05:06:48;5.70;;;4.53;;
40154;SDS011;25875;48.202;16.334;2023-04-08T05:09:16;5.10;;;4.60;;
40154;SDS011;25875;48.202;16.334;2023-04-08T05:11:43;5.38;;;4.85;;
40154;SDS011;25875;48.202;16.334;2023-04-08T05:14:09;4.50;;;4.03;;
40154;SDS011;25875;48.202;16.334;2023-04-08T05:16:36;4.68;;;4.18;;
40154;SDS011;25875;48.202;16.334;2023-04-08T05:19:03;4.60;;;3.90;;
40154;SDS011;25875;48.202;16.334;2023-04-08T05:21:29;4.70;;;4.30;;
40154;SDS011;25875;48.202;16.334;2023-04-08T05:23:56;4.60;;;3.63;;
40154;SDS011;25875;48.202;16.334;2023-04-08T05:26:24;4.10;;;3.67;;
40154;SDS011;25875;48.202;16.334;2023-04-08T05:28:51;3.83;;;3.40;;
40154;SDS011;25875;48.202;16.334;2023-04-08T05:31:18;4.55;;;3.95;;
40154;SDS011;25875;48.202;16.334;2023-04-08T05:33:45;6.72;;;5.68;;
40154;SDS011;25875;48.202;16.334;2023-04-08T05:36:12;6.38;;;5.47;;
40154;SDS011;25875;48.202;16.334;2023-04-08T05:38:39;4.35;;;3.95;;
40154;SDS011;25875;48.202;16.334;2023-04-08T05:41:07;4.72;;;4.20;;
40154;SDS011;25875;48.202;16.334;2023-04-08T05:43:35;4.60;;;4.07;;
40154;SDS011;25875;48.202;16.334;2023-04-08T05:46:05;6.13;;;4.65;;
40154;SDS011;25875;48.202;16.334;2023-04-08T05:48:32;4.55;;;3.38;;
40154;SDS011;25875;48.202;16.334;2023-04-08T05:50:59;3.50;;;3.00;;
40154;SDS011;25875;48.202;16.334;2023-04-08T05:53:26;3.60;;;2.92;;
40154;SDS011;25875;48.202;16.334;2023-04-08T05:55:52;3.30;;;2.90;;
40154;SDS011;25875;48.202;16.334;2023-04-08T05:58:19;3.47;;;3.08;;
40154;SDS011;25875;48.202;16.334;2023-04-08T06:00:47;4.25;;;2.95;;
40154;SDS011;25875;48.202;16.334;2023-04-08T06:03:14;3.78;;;3.30;;
40154;SDS011;25875;48.202;16.334;2023-04-08T06:05:41;4.75;;;3.75;;
40154;SDS011;25875;48.202;16.334;2023-04-08T06:08:07;4.03;;;3.47;;
40154;SDS011;25875;48.202;16.334;2023-04-08T06:10:34;3.70;;;3.30;;
40154;SDS011;25875;48.202;16.334;2023-04-08T06:13:01;4.32;;;3.75;;
40154;SDS011;25875;48.202;16.334;2023-04-08T06:15:28;4.18;;;3.65;;
40154;SDS011;25875;48.202;16.334;2023-04-08T06:17:56;4.18;;;3.17;;
40154;SDS011;25875;48.202;16.334;2023-04-08T06:20:22;3.70;;;3.20;;
40154;SDS011;25875;48.202;16.334;2023-04-08T06:22:49;3.55;;;2.95;;
40154;SDS011;25875;48.202;16.334;2023-04-08T06:25:16;3.55;;;2.88;;
40154;SDS011;25875;48.202;16.334;2023-04-08T06:27:43;3.10;;;2.78;;
40154;SDS011;25875;48.202;16.334;2023-04-08T06:30:10;3.42;;;3.00;;
40154;SDS011;25875;48.202;16.334;2023-04-08T06:32:36;4.00;;;3.47;;
40154;SDS011;25875;48.202;16.334;2023-04-08T06:35:05;3.53;;;2.90;;
40154;SDS011;25875;48.202;16.334;2023-04-08T06:37:33;3.83;;;2.90;;
40154;SDS011;25875;48.202;16.334;2023-04-08T06:40:03;3.75;;;3.30;;
40154;SDS011;25875;48.202;16.334;2023-04-08T06:42:30;3.60;;;3.03;;
40154;SDS011;25875;48.202;16.334;2023-04-08T06:44:57;3.67;;;3.20;;
40154;SDS011;25875;48.202;16.334;2023-04-08T06:47:24;3.85;;;3.15;;
40154;SDS011;25875;48.202;16.334;2023-04-08T06:49:51;5.22;;;3.13;;
40154;SDS011;25875;48.202;16.334;2023-04-08T06:52:19;3.72;;;2.90;;
40154;SDS011;25875;48.202;16.334;2023-04-08T06:54:46;3.30;;;2.95;;
40154;SDS011;25875;48.202;16.334;2023-04-08T06:57:13;4.15;;;3.15;;
40154;SDS011;25875;48.202;16.334;2023-04-08T06:59:39;3.90;;;3.10;;
40154;SDS011;25875;48.202;16.334;2023-04-08T07:02:06;4.03;;;3.13;;
40154;SDS011;25875;48.202;16.334;2023-04-08T07:04:33;3.80;;;3.33;;
40154;SDS011;25875;48.202;16.334;2023-04-08T07:06:59;3.50;;;3.15;;
40154;SDS011;25875;48.202;16.334;2023-04-08T07:09:27;4.15;;;3.55;;
40154;SDS011;25875;48.202;16.334;2023-04-08T07:11:54;3.60;;;3.00;;
40154;SDS011;25875;48.202;16.334;2023-04-08T07:14:21;3.63;;;3.15;;
40154;SDS011;25875;48.202;16.334;2023-04-08T07:16:48;3.55;;;3.03;;
40154;SDS011;25875;48.202;16.334;2023-04-08T07:19:15;4.00;;;3.50;;
40154;SDS011;25875;48.202;16.334;2023-04-08T07:21:41;4.00;;;3.60;;
40154;SDS011;25875;48.202;16.334;2023-04-08T07:24:08;5.15;;;3.83;;
40154;SDS011;25875;48.202;16.334;2023-04-08T07:26:36;3.63;;;3.25;;
40154;SDS011;25875;48.202;16.334;2023-04-08T07:29:03;3.45;;;3.13;;
40154;SDS011;25875;48.202;16.334;2023-04-08T07:31:30;4.25;;;3.67;;
40154;SDS011;25875;48.202;16.334;2023-04-08T07:33:57;5.25;;;3.45;;
40154;SDS011;25875;48.202;16.334;2023-04-08T07:36:24;4.90;;;4.40;;
40154;SDS011;25875;48.202;16.334;2023-04-08T07:38:50;5.05;;;3.90;;
40154;SDS011;25875;48.202;16.334;2023-04-08T07:41:17;5.88;;;5.07;;
40154;SDS011;25875;48.202;16.334;2023-04-08T07:43:45;5.28;;;4.70;;
40154;SDS011;25875;48.202;16.334;2023-04-08T07:46:12;5.00;;;4.50;;
40154;SDS011;25875;48.202;16.334;2023-04-08T07:48:38;5.13;;;4.63;;
40154;SDS011;25875;48.202;16.334;2023-04-08T07:51:05;4.95;;;4.32;;
40154;SDS011;25875;48.202;16.334;2023-04-08T07:53:33;5.40;;;4.80;;
40154;SDS011;25875;48.202;16.334;2023-04-08T07:56:00;6.97;;;5.03;;
40154;SDS011;25875;48.202;16.334;2023-04-08T07:58:28;6.57;;;4.88;;
40154;SDS011;25875;48.202;16.334;2023-04-08T08:00:57;5.47;;;4.88;;
40154;SDS011;25875;48.202;16.334;2023-04-08T08:03:24;7.38;;;6.13;;
40154;SDS011;25875;48.202;16.334;2023-04-08T08:05:51;7.65;;;6.15;;
40154;SDS011;25875;48.202;16.334;2023-04-08T08:08:17;7.40;;;5.97;;
40154;SDS011;25875;48.202;16.334;2023-04-08T08:10:44;5.97;;;5.38;;
40154;SDS011;25875;48.202;16.334;2023-04-08T08:13:11;6.50;;;5.38;;
40154;SDS011;25875;48.202;16.334;2023-04-08T08:15:41;6.65;;;5.85;;
40154;SDS011;25875;48.202;16.334;2023-04-08T08:18:09;7.40;;;5.70;;
40154;SDS011;25875;48.202;16.334;2023-04-08T08:20:35;6.93;;;6.10;;
40154;SDS011;25875;48.202;16.334;2023-04-08T08:23:02;7.63;;;6.53;;
40154;SDS011;25875;48.202;16.334;2023-04-08T08:25:29;6.40;;;5.70;;
40154;SDS011;25875;48.202;16.334;2023-04-08T08:27:55;7.15;;;5.97;;
40154;SDS011;25875;48.202;16.334;2023-04-08T08:30:22;7.00;;;5.82;;
40154;SDS011;25875;48.202;16.334;2023-04-08T08:32:50;6.50;;;5.22;;
40154;SDS011;25875;48.202;16.334;2023-04-08T08:35:18;7.18;;;6.18;;
40154;SDS011;25875;48.202;16.334;2023-04-08T08:37:45;6.47;;;5.70;;
40154;SDS011;25875;48.202;16.334;2023-04-08T08:40:13;7.28;;;6.47;;
40154;SDS011;25875;48.202;16.334;2023-04-08T08:42:39;6.40;;;5.70;;
40154;SDS011;25875;48.202;16.334;2023-04-08T08:45:07;6.80;;;5.72;;
40154;SDS011;25875;48.202;16.334;2023-04-08T08:47:34;7.75;;;6.55;;
40154;SDS011;25875;48.202;16.334;2023-04-08T08:50:01;8.63;;;7.63;;
40154;SDS011;25875;48.202;16.334;2023-04-08T08:52:29;8.45;;;6.75;;
40154;SDS011;25875;48.202;16.334;2023-04-08T08:54:57;10.00;;;8.85;;
40154;SDS011;25875;48.202;16.334;2023-04-08T08:57:25;8.50;;;7.40;;
40154;SDS011;25875;48.202;16.334;2023-04-08T08:59:52;7.97;;;6.90;;
40154;SDS011;25875;48.202;16.334;2023-04-08T09:02:22;8.10;;;6.95;;
40154;SDS011;25875;48.202;16.334;2023-04-08T09:04:54;7.13;;;6.15;;
40154;SDS011;25875;48.202;16.334;2023-04-08T09:07:23;7.47;;;6.70;;
40154;SDS011;25875;48.202;16.334;2023-04-08T09:09:52;7.18;;;6.47;;
40154;SDS011;25875;48.202;16.334;2023-04-08T09:12:20;8.30;;;6.75;;
40154;SDS011;25875;48.202;16.334;2023-04-08T09:14:47;7.88;;;6.32;;
40154;SDS011;25875;48.202;16.334;2023-04-08T09:17:14;7.72;;;6.82;;
40154;SDS011;25875;48.202;16.334;2023-04-08T09:19:52;7.97;;;6.60;;
40154;SDS011;25875;48.202;16.334;2023-04-08T09:22:30;9.32;;;7.20;;
40154;SDS011;25875;48.202;16.334;2023-04-08T09:24:58;8.73;;;7.55;;
40154;SDS011;25875;48.202;16.334;2023-04-08T09:27:32;9.57;;;7.25;;
40154;SDS011;25875;48.202;16.334;2023-04-08T09:32:45;7.45;;;6.22;;
40154;SDS011;25875;48.202;16.334;2023-04-08T09:35:13;7.72;;;6.18;;
40154;SDS011;25875;48.202;16.334;2023-04-08T09:37:41;9.45;;;6.82;;
40154;SDS011;25875;48.202;16.334;2023-04-08T09:40:09;8.82;;;6.75;;
40154;SDS011;25875;48.202;16.334;2023-04-08T09:42:39;8.27;;;6.88;;
40154;SDS011;25875;48.202;16.334;2023-04-08T09:45:06;9.50;;;7.70;;
40154;SDS011;25875;48.202;16.334;2023-04-08T09:47:37;8.88;;;7.30;;
40154;SDS011;25875;48.202;16.334;2023-04-08T09:50:12;9.13;;;7.30;;
40154;SDS011;25875;48.202;16.334;2023-04-08T09:52:43;6.72;;;5.80;;
40154;SDS011;25875;48.202;16.334;2023-04-08T09:55:12;7.78;;;6.85;;
40154;SDS011;25875;48.202;16.334;2023-04-08T09:57:40;8.50;;;7.22;;
40154;SDS011;25875;48.202;16.334;2023-04-08T10:00:10;9.50;;;8.20;;
40154;SDS011;25875;48.202;16.334;2023-04-08T10:02:42;9.82;;;7.43;;
40154;SDS011;25875;48.202;16.334;2023-04-08T10:05:14;8.45;;;6.22;;
40154;SDS011;25875;48.202;16.334;2023-04-08T10:07:43;8.32;;;7.05;;
40154;SDS011;25875;48.202;16.334;2023-04-08T10:10:11;9.65;;;7.10;;
40154;SDS011;25875;48.202;16.334;2023-04-08T10:12:38;9.00;;;8.05;;
40154;SDS011;25875;48.202;16.334;2023-04-08T10:15:21;9.88;;;7.80;;
40154;SDS011;25875;48.202;16.334;2023-04-08T10:17:48;9.30;;;7.45;;
40154;SDS011;25875;48.202;16.334;2023-04-08T10:23:07;10.23;;;7.10;;
40154;SDS011;25875;48.202;16.334;2023-04-08T10:25:36;8.25;;;7.22;;
40154;SDS011;25875;48.202;16.334;2023-04-08T10:30:51;12.27;;;8.75;;
40154;SDS011;25875;48.202;16.334;2023-04-08T10:33:20;9.18;;;7.60;;
40154;SDS011;25875;48.202;16.334;2023-04-08T10:35:51;11.95;;;8.80;;
40154;SDS011;25875;48.202;16.334;2023-04-08T10:38:19;14.05;;;10.63;;
40154;SDS011;25875;48.202;16.334;2023-04-08T10:40:48;12.55;;;9.52;;
40154;SDS011;25875;48.202;16.334;2023-04-08T10:43:15;10.05;;;8.15;;
40154;SDS011;25875;48.202;16.334;2023-04-08T10:45:42;16.40;;;11.85;;
40154;SDS011;25875;48.202;16.334;2023-04-08T10:48:10;12.63;;;11.20;;
40154;SDS011;25875;48.202;16.334;2023-04-08T10:50:38;13.90;;;11.88;;
40154;SDS011;25875;48.202;16.334;2023-04-08T10:53:06;16.13;;;13.00;;
40154;SDS011;25875;48.202;16.334;2023-04-08T10:55:32;18.45;;;13.82;;
40154;SDS011;25875;48.202;16.334;2023-04-08T10:58:05;14.98;;;11.02;;
40154;SDS011;25875;48.202;16.334;2023-04-08T11:00:33;12.13;;;9.45;;
40154;SDS011;25875;48.202;16.334;2023-04-08T11:03:01;14.38;;;10.40;;
40154;SDS011;25875;48.202;16.334;2023-04-08T11:05:29;12.15;;;9.82;;
40154;SDS011;25875;48.202;16.334;2023-04-08T11:07:56;11.57;;;9.05;;
40154;SDS011;25875;48.202;16.334;2023-04-08T11:10:23;12.55;;;10.23;;
40154;SDS011;25875;48.202;16.334;2023-04-08T11:12:51;11.05;;;9.40;;
40154;SDS011;25875;48.202;16.334;2023-04-08T11:15:20;13.02;;;10.27;;
40154;SDS011;25875;48.202;16.334;2023-04-08T11:17:48;12.88;;;10.15;;
40154;SDS011;25875;48.202;16.334;2023-04-08T11:20:15;13.27;;;9.88;;
40154;SDS011;25875;48.202;16.334;2023-04-08T11:22:42;14.48;;;10.95;;
40154;SDS011;25875;48.202;16.334;2023-04-08T11:25:10;15.73;;;9.70;;
40154;SDS011;25875;48.202;16.334;2023-04-08T11:27:37;15.82;;;11.43;;
40154;SDS011;25875;48.202;16.334;2023-04-08T11:30:05;14.40;;;9.80;;
40154;SDS011;25875;48.202;16.334;2023-04-08T11:32:34;12.88;;;10.60;;
40154;SDS011;25875;48.202;16.334;2023-04-08T11:35:03;13.50;;;9.82;;
40154;SDS011;25875;48.202;16.334;2023-04-08T11:37:35;14.95;;;11.15;;
40154;SDS011;25875;48.202;16.334;2023-04-08T11:40:05;13.95;;;9.98;;
40154;SDS011;25875;48.202;16.334;2023-04-08T11:42:33;15.95;;;10.88;;
40154;SDS011;25875;48.202;16.334;2023-04-08T11:45:00;15.70;;;11.65;;
40154;SDS011;25875;48.202;16.334;2023-04-08T11:47:29;15.55;;;10.98;;
40154;SDS011;25875;48.202;16.334;2023-04-08T11:49:58;14.18;;;10.98;;
40154;SDS011;25875;48.202;16.334;2023-04-08T11:52:39;13.57;;;10.80;;
40154;SDS011;25875;48.202;16.334;2023-04-08T11:55:09;14.50;;;11.13;;
40154;SDS011;25875;48.202;16.334;2023-04-08T11:57:36;14.65;;;11.73;;
40154;SDS011;25875;48.202;16.334;2023-04-08T12:00:04;14.35;;;11.65;;
40154;SDS011;25875;48.202;16.334;2023-04-08T12:02:32;11.57;;;9.73;;
40154;SDS011;25875;48.202;16.334;2023-04-08T12:05:00;13.07;;;10.98;;
40154;SDS011;25875;48.202;16.334;2023-04-08T12:07:27;14.32;;;12.32;;
40154;SDS011;25875;48.202;16.334;2023-04-08T12:09:54;14.93;;;10.88;;
40154;SDS011;25875;48.202;16.334;2023-04-08T12:12:20;14.43;;;11.02;;
40154;SDS011;25875;48.202;16.334;2023-04-08T12:14:47;13.60;;;10.38;;
40154;SDS011;25875;48.202;16.334;2023-04-08T12:17:14;15.20;;;11.15;;
40154;SDS011;25875;48.202;16.334;2023-04-08T12:19:40;13.13;;;10.35;;
40154;SDS011;25875;48.202;16.334;2023-04-08T12:22:09;12.52;;;10.05;;
40154;SDS011;25875;48.202;16.334;2023-04-08T12:24:35;12.60;;;10.55;;
40154;SDS011;25875;48.202;16.334;2023-04-08T12:27:02;13.35;;;10.70;;
40154;SDS011;25875;48.202;16.334;2023-04-08T12:29:29;14.23;;;11.30;;
40154;SDS011;25875;48.202;16.334;2023-04-08T12:31:56;13.43;;;11.25;;
40154;SDS011;25875;48.202;16.334;2023-04-08T12:34:22;16.27;;;12.38;;
40154;SDS011;25875;48.202;16.334;2023-04-08T12:36:49;14.90;;;12.27;;
40154;SDS011;25875;48.202;16.334;2023-04-08T12:39:17;13.52;;;11.55;;
40154;SDS011;25875;48.202;16.334;2023-04-08T12:41:45;13.57;;;10.80;;
40154;SDS011;25875;48.202;16.334;2023-04-08T12:44:11;13.52;;;10.73;;
40154;SDS011;25875;48.202;16.334;2023-04-08T12:46:38;13.38;;;11.98;;
40154;SDS011;25875;48.202;16.334;2023-04-08T12:49:05;13.82;;;11.30;;
40154;SDS011;25875;48.202;16.334;2023-04-08T12:51:31;14.75;;;11.90;;
40154;SDS011;25875;48.202;16.334;2023-04-08T12:53:58;12.88;;;10.23;;
40154;SDS011;25875;48.202;16.334;2023-04-08T12:56:27;12.32;;;9.63;;
40154;SDS011;25875;48.202;16.334;2023-04-08T12:58:54;11.45;;;9.52;;
40154;SDS011;25875;48.202;16.334;2023-04-08T13:01:21;12.15;;;9.90;;
40154;SDS011;25875;48.202;16.334;2023-04-08T13:03:48;13.07;;;9.88;;
40154;SDS011;25875;48.202;16.334;2023-04-08T13:06:15;10.68;;;8.57;;
40154;SDS011;25875;48.202;16.334;2023-04-08T13:08:41;11.02;;;9.27;;
40154;SDS011;25875;48.202;16.334;2023-04-08T13:11:08;10.20;;;8.75;;
40154;SDS011;25875;48.202;16.334;2023-04-08T13:13:36;10.55;;;8.15;;
40154;SDS011;25875;48.202;16.334;2023-04-08T13:16:03;10.95;;;9.13;;
40154;SDS011;25875;48.202;16.334;2023-04-08T13:18:30;9.68;;;8.18;;
40154;SDS011;25875;48.202;16.334;2023-04-08T13:20:56;8.85;;;7.95;;
40154;SDS011;25875;48.202;16.334;2023-04-08T13:23:23;9.98;;;8.43;;
40154;SDS011;25875;48.202;16.334;2023-04-08T13:25:50;9.88;;;8.88;;
40154;SDS011;25875;48.202;16.334;2023-04-08T13:28:17;9.68;;;8.68;;
40154;SDS011;25875;48.202;16.334;2023-04-08T13:30:45;10.20;;;8.90;;
40154;SDS011;25875;48.202;16.334;2023-04-08T13:33:11;11.10;;;9.18;;
40154;SDS011;25875;48.202;16.334;2023-04-08T13:35:38;10.93;;;9.18;;
40154;SDS011;25875;48.202;16.334;2023-04-08T13:38:05;10.68;;;9.50;;
40154;SDS011;25875;48.202;16.334;2023-04-08T13:40:32;11.10;;;8.73;;
40154;SDS011;25875;48.202;16.334;2023-04-08T13:42:59;10.48;;;8.88;;
40154;SDS011;25875;48.202;16.334;2023-04-08T13:45:26;10.50;;;8.40;;
40154;SDS011;25875;48.202;16.334;2023-04-08T13:47:54;8.55;;;7.65;;
40154;SDS011;25875;48.202;16.334;2023-04-08T13:50:21;9.85;;;8.02;;
40154;SDS011;25875;48.202;16.334;2023-04-08T13:52:47;10.20;;;8.00;;
40154;SDS011;25875;48.202;16.334;2023-04-08T13:55:14;10.38;;;8.10;;
40154;SDS011;25875;48.202;16.334;2023-04-08T13:57:41;9.43;;;7.35;;
40154;SDS011;25875;48.202;16.334;2023-04-08T14:00:08;8.13;;;6.80;;
40154;SDS011;25875;48.202;16.334;2023-04-08T14:02:36;7.70;;;6.68;;
40154;SDS011;25875;48.202;16.334;2023-04-08T14:05:04;9.15;;;7.32;;
40154;SDS011;25875;48.202;16.334;2023-04-08T14:07:31;7.75;;;6.90;;
40154;SDS011;25875;48.202;16.334;2023-04-08T14:09:58;8.15;;;7.32;;
40154;SDS011;25875;48.202;16.334;2023-04-08T14:12:25;8.80;;;7.90;;
40154;SDS011;25875;48.202;16.334;2023-04-08T14:14:51;9.25;;;8.25;;
40154;SDS011;25875;48.202;16.334;2023-04-08T14:17:18;8.77;;;7.88;;
40154;SDS011;25875;48.202;16.334;2023-04-08T14:19:45;9.25;;;7.22;;
40154;SDS011;25875;48.202;16.334;2023-04-08T14:22:13;7.50;;;6.60;;
40154;SDS011;25875;48.202;16.334;2023-04-08T14:24:41;7.82;;;7.00;;
40154;SDS011;25875;48.202;16.334;2023-04-08T14:27:07;6.85;;;6.13;;
40154;SDS011;25875;48.202;16.334;2023-04-08T14:29:34;7.40;;;6.35;;
40154;SDS011;25875;48.202;16.334;2023-04-08T14:32:01;7.60;;;6.78;;
40154;SDS011;25875;48.202;16.334;2023-04-08T14:34:27;7.05;;;6.35;;
40154;SDS011;25875;48.202;16.334;2023-04-08T14:36:54;7.32;;;6.15;;
40154;SDS011;25875;48.202;16.334;2023-04-08T14:39:22;7.60;;;6.55;;
40154;SDS011;25875;48.202;16.334;2023-04-08T14:41:49;9.20;;;7.72;;